Time;durP1;ratioP1;P1;durP2;ratioP2;P2;SDS_P1;SDS_P2;PMS_P1;PMS_P2;Temp;Humidity;BMP_temperature;BMP_pressure;BME280_temperature;BME280_humidity;BME280_pressure;Samples;Min_cycle;Max_cycle;Signal;HPM_P1;HPM_P2
2021/01/20 00:00:27;;;;;;;0.98;0.85;;;18.90;39.80;;;22.57;27.19;99742.50;6305253;22;20065;-82
2021/01/20 00:02:53;;;;;;;1.25;0.90;;;18.90;39.80;;;22.58;27.42;99746.81;6307108;22;20433;-82
2021/01/20 00:05:19;;;;;;;1.10;1.00;;;18.90;39.80;;;22.56;27.27;99740.78;6222018;22;691203;-81
2021/01/20 00:07:45;;;;;;;1.27;1.10;;;18.80;39.80;;;22.55;27.35;99739.09;6246937;23;20039;-82
2021/01/20 00:10:15;;;;;;;1.30;0.90;;;18.90;40.00;;;22.57;27.32;99745.16;6246866;23;20015;-81
2021/01/20 00:12:45;;;;;;;1.70;1.20;;;18.90;39.90;;;22.56;27.33;99741.63;6246936;22;20012;-81
2021/01/20 00:15:23;;;;;;;0.95;0.93;;;18.80;39.90;;;22.54;27.19;99737.41;6220179;23;20349;-81
2021/01/20 00:17:48;;;;;;;1.52;1.08;;;18.90;39.90;;;22.59;27.32;99745.84;6220884;23;20004;-81
2021/01/20 00:20:18;;;;;;;1.50;0.90;;;18.80;39.90;;;22.54;27.25;99740.09;6244874;23;20095;-81
2021/01/20 00:22:47;;;;;;;1.48;0.90;;;18.90;39.90;;;22.57;27.43;99742.50;6220502;23;20016;-81
2021/01/20 00:25:18;;;;;;;1.73;0.80;;;18.80;39.90;;;22.54;27.31;99743.59;6247153;22;20008;-81
2021/01/20 00:27:44;;;;;;;1.35;0.80;;;18.80;39.80;;;22.56;27.40;99738.13;6220129;23;20015;-82
2021/01/20 00:30:14;;;;;;;1.00;0.90;;;18.90;39.90;;;22.53;27.40;99741.88;6220704;23;20316;-81
2021/01/20 00:32:39;;;;;;;1.95;0.82;;;18.90;39.80;;;22.55;27.20;99737.28;6219911;23;20011;-81
2021/01/20 00:35:10;;;;;;;1.10;0.80;;;18.80;39.90;;;22.53;27.36;99728.56;6219595;23;20334;-81
2021/01/20 00:37:37;;;;;;;2.08;1.00;;;18.80;39.90;;;22.58;27.51;99741.50;6244908;23;20072;-81
2021/01/20 00:40:07;;;;;;;1.25;0.80;;;18.80;40.00;;;22.48;27.37;99730.78;6245309;23;20012;-82
2021/01/20 00:42:33;;;;;;;0.93;0.75;;;18.80;40.00;;;22.55;27.27;99734.63;6245619;23;20008;-81
2021/01/20 00:45:04;;;;;;;1.23;1.00;;;18.80;40.00;;;22.50;27.37;99735.97;6245207;23;20096;-81
2021/01/20 00:47:32;;;;;;;0.80;0.80;;;18.80;40.00;;;22.53;27.23;99738.38;6245289;23;20014;-81
2021/01/20 00:50:03;;;;;;;1.40;1.13;;;18.90;40.00;;;22.53;27.36;99735.72;6219938;23;20075;-81
2021/01/20 00:52:32;;;;;;;0.75;0.75;;;18.80;40.00;;;22.53;27.34;99733.06;6247177;23;20004;-81
2021/01/20 00:55:02;;;;;;;1.17;0.90;;;18.80;40.50;;;22.52;27.50;99745.53;6222515;23;20008;-81
2021/01/20 00:57:32;;;;;;;1.45;0.90;;;18.80;40.00;;;22.52;27.35;99742.00;6222659;23;20414;-81
2021/01/20 01:00:00;;;;;;;1.10;1.00;;;18.80;40.10;;;22.48;27.43;99725.44;6249385;23;20012;-82
2021/01/20 01:02:29;;;;;;;1.20;0.90;;;18.80;40.10;;;22.48;27.42;99724.63;6247133;23;20039;-81
2021/01/20 01:04:57;;;;;;;1.38;1.20;;;18.80;40.00;;;22.52;27.28;99742.00;6218585;23;20019;-81
2021/01/20 01:07:23;;;;;;;2.45;1.15;;;18.80;40.00;;;22.52;27.34;99742.00;6218465;23;20043;-81
2021/01/20 01:09:49;;;;;;;1.40;0.82;;;18.80;40.00;;;22.53;27.45;99738.38;6195330;23;20065;-81
2021/01/20 01:12:30;;;;;;;1.58;0.90;;;18.80;40.00;;;22.54;27.39;99745.41;6199331;23;20008;-81
2021/01/20 01:14:57;;;;;;;0.90;0.90;;;18.80;40.10;;;22.51;27.30;99733.19;6193901;23;20015;-81
2021/01/20 01:17:31;;;;;;;0.80;0.80;;;18.80;40.00;;;22.51;27.56;99730.53;6221926;23;20012;-81
2021/01/20 01:20:00;;;;;;;1.10;1.00;;;18.80;40.10;;;22.51;27.51;99727.84;6220772;23;20016;-81
2021/01/20 01:22:27;;;;;;;0.70;0.70;;;18.80;40.10;;;22.48;27.43;99725.44;6196047;23;20040;-81
2021/01/20 01:24:53;;;;;;;0.70;0.70;;;18.80;40.10;;;22.52;27.40;99728.69;6216247;23;20020;-81
2021/01/20 01:27:19;;;;;;;2.17;0.80;;;18.80;40.10;;;22.49;27.45;99719.16;6244566;23;20074;-81
2021/01/20 01:29:47;;;;;;;1.92;0.80;;;18.80;40.10;;;22.51;27.36;99727.03;6246058;23;20315;-81
2021/01/20 01:32:23;;;;;;;1.30;1.00;;;18.80;40.00;;;22.49;27.46;99727.16;6248158;23;20012;-81
2021/01/20 01:34:52;;;;;;;0.88;0.80;;;18.80;40.10;;;22.50;27.49;99722.66;6220582;23;20042;-81
2021/01/20 01:37:18;;;;;;;0.82;0.70;;;18.80;40.00;;;22.50;27.49;99712.00;6245906;23;20043;-81
2021/01/20 01:40:19;;;;;;;2.55;0.85;;;18.80;40.00;;;22.51;27.42;99708.38;6246510;23;20016;-81
2021/01/20 01:43:15;;;;;;;1.17;1.08;;;18.80;40.00;;;22.50;27.52;99707.53;6251142;22;20020;-81
2021/01/20 01:45:43;;;;;;;1.65;1.13;;;18.80;40.00;;;22.51;27.41;99711.88;6250025;22;20625;-81
2021/01/20 01:48:09;;;;;;;2.30;1.13;;;18.80;40.00;;;22.52;27.49;99705.59;6225899;22;20468;-81
2021/01/20 01:50:35;;;;;;;1.50;1.20;;;18.80;40.00;;;22.51;27.55;99713.72;6195716;23;20035;-81
2021/01/20 01:53:01;;;;;;;3.65;1.02;;;18.80;40.00;;;22.51;27.42;99697.72;6220622;23;20012;-81
2021/01/20 01:55:59;;;;;;;0.90;0.80;;;18.90;40.00;;;22.53;27.39;99706.41;6225400;23;20016;-81
2021/01/20 01:58:35;;;;;;;1.05;0.95;;;18.90;40.00;;;22.52;27.48;99707.38;6222436;23;20008;-81
2021/01/20 02:01:06;;;;;;;1.35;1.00;;;18.80;40.00;;;22.52;27.28;99708.25;6243134;23;20449;-81
2021/01/20 02:03:44;;;;;;;1.45;1.02;;;18.80;40.00;;;22.51;27.51;99706.53;6222829;23;20381;-81
2021/01/20 02:06:11;;;;;;;1.65;1.00;;;18.80;40.00;;;22.49;27.53;99697.03;6297448;22;20091;-81
2021/01/20 02:08:38;;;;;;;0.95;0.85;;;18.80;40.10;;;22.51;27.48;99692.41;6221095;23;20048;-81
2021/01/20 02:11:48;;;;;;;1.13;0.90;;;18.80;40.00;;;22.55;27.58;99704.47;6222307;23;20011;-81
2021/01/20 02:14:46;;;;;;;2.05;1.00;;;18.90;40.10;;;22.50;27.55;99702.22;6220288;23;20086;-81
2021/01/20 02:17:58;;;;;;;1.00;0.90;;;18.90;40.10;;;22.50;27.37;99699.56;6250588;22;20019;-81
2021/01/20 02:21:03;;;;;;;1.00;0.80;;;18.80;40.20;;;22.48;27.44;99690.00;6274479;22;20022;-81
2021/01/20 02:23:31;;;;;;;0.80;0.80;;;18.80;40.10;;;22.49;27.68;99702.34;6225521;22;20015;-81
2021/01/20 02:26:17;;;;;;;1.75;1.05;;;18.80;40.10;;;22.49;27.67;99699.69;6251135;22;20008;-81
2021/01/20 02:29:27;;;;;;;1.20;0.90;;;18.80;40.10;;;22.49;27.56;99697.84;6242820;23;20035;-81
2021/01/20 02:32:09;;;;;;;1.17;1.00;;;18.80;40.10;;;22.50;27.63;99691.56;6224103;23;20017;-81
2021/01/20 02:34:36;;;;;;;1.48;1.00;;;18.80;40.10;;;22.48;27.58;99695.31;6220216;23;20023;-81
2021/01/20 02:37:03;;;;;;;0.80;0.80;;;18.80;40.10;;;22.51;27.58;99703.06;6243152;22;20142;-81
2021/01/20 02:39:49;;;;;;;1.60;0.90;;;18.80;40.10;;;22.48;27.58;99701.47;6244251;23;20043;-82
2021/01/20 02:42:27;;;;;;;1.20;1.10;;;18.80;40.10;;;22.50;27.59;99709.34;6222008;23;20016;-81
2021/01/20 02:45:03;;;;;;;1.60;1.15;;;18.90;40.20;;;22.50;27.59;99706.69;6245513;23;20031;-81
2021/01/20 02:47:40;;;;;;;1.80;1.17;;;18.80;40.20;;;22.51;27.57;99706.53;6222544;23;20016;-81
2021/01/20 02:50:12;;;;;;;1.40;1.00;;;18.80;40.10;;;22.51;27.47;99700.38;6221498;23;20054;-81
2021/01/20 02:52:59;;;;;;;1.52;1.17;;;18.80;40.00;;;22.45;27.50;99701.75;6220461;23;20055;-81
2021/01/20 02:55:55;;;;;;;2.33;1.20;;;18.80;40.10;;;22.48;27.70;99698.81;6249706;22;20457;-81
2021/01/20 02:58:44;;;;;;;1.20;1.00;;;18.80;40.20;;;22.50;27.47;99704.00;6244786;23;20404;-81
2021/01/20 03:01:31;;;;;;;1.20;1.10;;;18.80;40.10;;;22.50;27.47;99696.03;6245663;23;20099;-81
2021/01/20 03:04:01;;;;;;;1.45;1.20;;;18.80;40.10;;;22.46;27.66;99698.13;6220380;23;20020;-81
2021/01/20 03:06:28;;;;;;;2.73;1.57;;;18.80;40.10;;;22.50;27.60;99698.69;6245525;23;20012;-81
2021/01/20 03:08:55;;;;;;;1.15;1.00;;;18.80;40.70;;;22.48;27.56;99690.00;6219893;23;20326;-81
2021/01/20 03:11:22;;;;;;;1.75;1.00;;;18.80;40.10;;;22.47;27.68;99685.63;6219998;23;20023;-81
2021/01/20 03:13:48;;;;;;;1.00;1.00;;;18.80;40.10;;;22.49;27.59;99679.22;6244628;23;20008;-82
2021/01/20 03:16:23;;;;;;;1.70;1.15;;;18.80;40.10;;;22.48;27.58;99676.69;6219808;23;20016;-81
2021/01/20 03:18:49;;;;;;;1.20;1.10;;;18.80;40.10;;;22.49;27.49;99667.72;6245292;23;20346;-81
2021/01/20 03:21:15;;;;;;;1.38;1.27;;;18.80;40.00;;;22.50;27.56;99680.03;6245016;23;20020;-81
2021/01/20 03:23:41;;;;;;;0.80;0.80;;;18.90;40.10;;;22.52;27.64;99678.06;6244899;23;20381;-82
2021/01/20 03:26:07;;;;;;;1.25;1.15;;;18.80;40.00;;;22.53;27.46;99679.78;6220458;23;20027;-82
2021/01/20 03:28:32;;;;;;;2.83;1.38;;;18.80;40.00;;;22.51;27.67;99671.91;6245258;23;20087;-82
2021/01/20 03:30:58;;;;;;;1.10;1.00;;;18.80;40.00;;;22.56;27.41;99679.50;6244717;23;20020;-81
2021/01/20 03:33:24;;;;;;;2.92;1.20;;;18.90;40.00;;;22.55;27.60;99672.50;6246609;23;20020;-82
2021/01/20 03:35:50;;;;;;;1.20;1.00;;;18.90;39.90;;;22.57;27.60;99676.72;6244627;23;20020;-81
2021/01/20 03:38:15;;;;;;;1.90;1.23;;;18.90;40.00;;;22.55;27.46;99662.69;6246528;23;20012;-81
2021/01/20 03:40:41;;;;;;;1.23;1.13;;;19.00;39.90;;;22.58;27.60;99661.56;6244937;23;20020;-82
2021/01/20 03:43:07;;;;;;;1.40;1.23;;;19.00;39.90;;;22.58;27.63;99662.41;6244672;23;20020;-82
2021/01/20 03:45:32;;;;;;;1.60;0.90;;;19.00;39.90;;;22.61;27.39;99661.31;6245207;23;20012;-82
2021/01/20 03:47:58;;;;;;;1.85;1.20;;;19.00;39.90;;;22.64;27.49;99653.03;6244727;23;20307;-81
2021/01/20 03:50:24;;;;;;;1.10;1.05;;;19.00;39.90;;;22.64;27.57;99646.88;6245197;23;20013;-81
2021/01/20 03:52:50;;;;;;;2.72;1.20;;;19.00;39.80;;;22.61;27.53;99647.97;6249412;22;20012;-82
2021/01/20 03:55:15;;;;;;;1.85;1.10;;;19.00;39.80;;;22.65;27.57;99648.56;6249949;22;20012;-81
2021/01/20 03:57:41;;;;;;;1.25;1.13;;;19.00;39.80;;;22.68;27.49;99637.63;6225037;22;20012;-82
2021/01/20 04:00:07;;;;;;;2.17;1.23;;;19.10;39.80;;;22.69;27.53;99648.16;6276902;22;20043;-82
2021/01/20 04:02:33;;;;;;;1.10;0.98;;;19.10;39.80;;;22.68;27.40;99637.63;6224600;22;20007;-82
2021/01/20 04:05:10;;;;;;;1.15;0.90;;;19.10;39.80;;;22.71;27.42;99642.69;6227569;22;20012;-82
2021/01/20 04:07:35;;;;;;;1.30;1.20;;;19.10;39.70;;;22.72;27.42;99637.22;6199354;22;20012;-81
2021/01/20 04:10:01;;;;;;;1.75;1.10;;;19.10;39.70;;;22.71;27.41;99635.53;6223824;22;20026;-81
2021/01/20 04:12:28;;;;;;;0.95;0.93;;;19.10;39.70;;;22.74;27.46;99639.75;6224566;22;20094;-82
2021/01/20 04:14:55;;;;;;;1.27;1.10;;;19.10;39.70;;;22.76;27.40;99638.63;6249859;22;20440;-82
2021/01/20 04:17:22;;;;;;;1.42;1.27;;;19.10;39.80;;;22.74;27.43;99629.94;6250506;22;20019;-82
2021/01/20 04:19:48;;;;;;;1.45;1.20;;;19.10;39.80;;;22.76;27.41;99629.81;6276479;22;20016;-82
2021/01/20 04:22:14;;;;;;;1.15;1.05;;;19.10;39.80;;;22.74;27.41;99629.94;6244535;23;20019;-82
2021/01/20 04:24:40;;;;;;;1.13;0.90;;;19.10;39.80;;;22.73;27.42;99612.25;6244461;23;20016;-81
2021/01/20 04:27:05;;;;;;;1.92;1.35;;;19.10;40.30;;;22.79;27.39;99620.66;6244329;23;20018;-81
2021/01/20 04:29:31;;;;;;;1.50;1.23;;;19.10;39.80;;;22.78;27.57;99629.66;6246339;23;20018;-81
2021/01/20 04:31:57;;;;;;;0.90;0.80;;;19.10;39.80;;;22.76;27.52;99624.47;6244568;23;20058;-81
2021/01/20 04:34:22;;;;;;;1.38;1.27;;;19.10;39.80;;;22.79;27.41;99618.88;6244387;23;20012;-82
2021/01/20 04:36:48;;;;;;;1.40;1.10;;;19.10;39.80;;;22.80;27.47;99622.38;6245941;23;20023;-81
2021/01/20 04:39:14;;;;;;;1.50;1.38;;;19.10;39.80;;;22.77;27.36;99618.19;6244476;23;20020;-82
2021/01/20 04:41:40;;;;;;;1.23;1.13;;;19.10;39.80;;;22.75;27.32;99612.97;6245908;23;20012;-82
2021/01/20 04:44:06;;;;;;;0.90;0.90;;;19.10;39.80;;;22.79;27.39;99618.00;6218904;23;20016;-82
2021/01/20 04:46:34;;;;;;;2.00;1.30;;;19.10;39.80;;;22.79;27.49;99626.00;6219332;23;20008;-82
2021/01/20 04:49:01;;;;;;;0.98;0.90;;;19.10;39.80;;;22.76;27.36;99611.16;6218909;23;20095;-81
2021/01/20 04:51:28;;;;;;;1.20;1.10;;;19.10;39.90;;;22.76;27.47;99613.81;6189183;23;20036;-82
2021/01/20 04:53:55;;;;;;;1.35;1.20;;;19.10;39.90;;;22.73;27.34;99601.59;6246932;22;20307;-81
2021/01/20 04:56:23;;;;;;;1.10;1.00;;;19.10;39.90;;;22.76;27.37;99609.31;6244525;23;20103;-81
2021/01/20 04:58:51;;;;;;;1.30;1.20;;;19.10;40.00;;;22.75;27.36;99604.13;6224106;22;20073;-81
2021/01/20 05:01:18;;;;;;;1.35;1.23;;;19.10;39.90;;;22.74;27.38;99597.97;6224718;22;20368;-82
2021/01/20 05:03:45;;;;;;;1.10;1.00;;;19.10;39.90;;;22.72;27.46;99588.41;6224333;22;20020;-81
2021/01/20 05:06:12;;;;;;;1.05;0.98;;;19.00;39.90;;;22.74;27.34;99592.63;6224074;22;20054;-81
2021/01/20 05:08:37;;;;;;;1.05;0.98;;;19.10;39.90;;;22.74;27.55;99587.28;6218937;23;20103;-82
2021/01/20 05:11:03;;;;;;;1.35;0.93;;;19.00;39.90;;;22.74;27.48;99589.13;6244132;23;20016;-81
2021/01/20 05:13:32;;;;;;;1.10;1.00;;;19.00;39.90;;;22.72;27.49;99577.75;6244245;23;20012;-81
2021/01/20 05:15:58;;;;;;;1.10;0.98;;;19.00;39.90;;;22.74;27.34;99579.31;6270706;22;20012;-82
2021/01/20 05:18:25;;;;;;;1.38;0.85;;;19.00;39.90;;;22.74;27.48;99576.63;6218959;23;20091;-81
2021/01/20 05:20:52;;;;;;;1.48;1.20;;;19.00;39.90;;;22.69;27.47;99576.22;6218938;23;20012;-81
2021/01/20 05:23:25;;;;;;;1.15;0.88;;;19.00;40.00;;;22.70;27.66;99579.72;6219121;23;20078;-81
2021/01/20 05:25:51;;;;;;;1.30;1.00;;;19.00;39.90;;;22.71;27.44;99573.41;6270037;22;20159;-82
2021/01/20 05:28:29;;;;;;;1.10;1.00;;;19.00;39.90;;;22.70;27.34;99579.72;6244192;23;20055;-81
2021/01/20 05:30:57;;;;;;;1.10;1.10;;;19.00;39.90;;;22.73;27.45;99579.44;6244248;22;20426;-82
2021/01/20 05:33:47;;;;;;;1.63;1.23;;;19.00;40.00;;;22.69;27.42;99562.06;6219181;23;20012;-81
2021/01/20 05:36:14;;;;;;;1.35;1.25;;;19.00;39.90;;;22.70;27.44;99577.91;6245693;22;20056;-81
2021/01/20 05:38:43;;;;;;;1.80;1.48;;;19.00;40.00;;;22.65;27.53;99564.13;6244422;22;20031;-81
2021/01/20 05:41:22;;;;;;;1.50;1.10;;;19.00;40.00;;;22.71;27.49;99576.91;6278301;22;20015;-81
2021/01/20 05:44:08;;;;;;;1.02;0.90;;;19.00;39.90;;;22.69;27.44;99562.06;6278450;22;20042;-81
2021/01/20 05:46:34;;;;;;;1.40;1.10;;;19.00;39.90;;;22.73;27.32;99574.09;6278318;22;20023;-82
2021/01/20 05:49:01;;;;;;;1.33;1.00;;;19.00;39.90;;;22.69;27.40;99576.22;6220547;23;20016;-81
2021/01/20 05:51:41;;;;;;;1.35;1.20;;;19.00;39.90;;;22.71;27.54;99576.91;6221273;23;20083;-81
2021/01/20 05:54:08;;;;;;;1.67;1.10;;;19.00;39.90;;;22.70;27.38;99569.91;6271336;22;20016;-81
2021/01/20 05:56:34;;;;;;;1.27;1.17;;;19.00;39.90;;;22.71;27.36;99573.41;6246045;23;20015;-81
2021/01/20 05:59:00;;;;;;;2.00;1.33;;;19.00;39.90;;;22.69;27.53;99570.06;6195509;23;20004;-81
2021/01/20 06:01:27;;;;;;;1.17;1.08;;;19.10;39.90;;;22.71;27.41;99576.06;6245963;23;20016;-82
2021/01/20 06:03:54;;;;;;;1.10;1.00;;;19.10;39.90;;;22.69;27.37;99570.06;6271770;22;20325;-82
2021/01/20 06:06:21;;;;;;;1.85;1.25;;;19.00;39.80;;;22.73;27.44;99574.09;6245913;23;20012;-81
2021/01/20 06:08:47;;;;;;;1.35;1.10;;;19.10;39.80;;;22.71;27.29;99568.91;6268428;22;20037;-82
2021/01/20 06:11:16;;;;;;;1.98;1.40;;;19.10;39.80;;;22.70;27.41;99556.59;6243466;23;20004;-81
2021/01/20 06:13:42;;;;;;;1.40;1.23;;;19.10;39.90;;;22.68;27.55;99560.38;6245400;23;20039;-81
2021/01/20 06:16:15;;;;;;;1.45;1.20;;;19.10;39.80;;;22.74;27.45;99555.31;6220334;23;20075;-81
2021/01/20 06:18:48;;;;;;;2.90;1.30;;;19.10;39.90;;;22.71;27.50;99544.94;6220834;23;20008;-81
2021/01/20 06:21:18;;;;;;;1.13;1.02;;;19.10;39.90;;;22.71;27.34;99547.59;6214152;22;20019;-81
2021/01/20 06:24:24;;;;;;;1.80;1.20;;;19.10;39.80;;;22.75;27.65;99548.16;6226003;22;20011;-81
2021/01/20 06:27:15;;;;;;;4.65;1.30;;;19.00;45.80;;;22.74;27.59;99557.16;6191969;22;20476;-80
2021/01/20 06:29:52;;;;;;;1.35;1.13;;;19.10;40.20;;;22.72;27.54;99548.44;6220306;23;20023;-80
2021/01/20 06:32:23;;;;;;;1.55;1.25;;;19.10;40.10;;;22.73;27.44;99564.28;6245465;23;20016;-80
2021/01/20 06:34:54;;;;;;;2.67;1.30;;;19.10;40.10;;;22.73;27.61;99558.13;6271201;22;20004;-80
2021/01/20 06:37:52;;;;;;;2.90;1.70;;;19.10;40.00;;;22.76;27.41;99550.69;6220474;23;20018;-79
2021/01/20 06:40:18;;;;;;;1.23;1.05;;;19.10;40.00;;;22.78;27.45;99555.06;6179018;22;20345;-79
2021/01/20 06:42:44;;;;;;;1.55;1.20;;;19.10;40.00;;;22.75;27.51;99542.84;6246340;23;20043;-80
2021/01/20 06:45:25;;;;;;;1.20;1.10;;;19.10;40.00;;;22.73;27.60;99548.28;6244383;23;20015;-80
2021/01/20 06:48:00;;;;;;;1.33;1.00;;;19.10;40.00;;;22.75;27.41;99565.00;6185799;23;20012;-80
2021/01/20 06:51:06;;;;;;;2.70;1.40;;;19.10;40.00;;;22.80;27.45;99564.56;6243856;23;20019;-80
2021/01/20 06:54:12;;;;;;;1.30;1.20;;;19.10;40.00;;;22.79;27.43;99559.38;6247037;23;20013;-80
2021/01/20 06:56:49;;;;;;;1.20;1.10;;;19.10;40.00;;;22.75;27.63;99554.34;6244043;22;20020;-80
2021/01/20 06:59:33;;;;;;;0.85;0.85;;;19.10;40.00;;;22.73;27.54;99548.28;6218866;22;20055;-82
2021/01/20 07:02:02;;;;;;;1.27;1.17;;;19.10;40.00;;;22.76;27.26;99555.19;6245102;23;20012;-80
2021/01/20 07:04:39;;;;;;;1.80;1.45;;;19.10;40.00;;;22.78;27.51;99552.38;6270004;22;20015;-80
2021/01/20 07:07:09;;;;;;;2.65;1.05;;;19.10;40.00;;;22.72;27.39;99551.97;6277705;22;20012;-80
2021/01/20 07:10:01;;;;;;;2.55;1.30;;;19.10;40.00;;;22.74;27.55;99544.66;6225790;22;20007;-81
2021/01/20 07:12:26;;;;;;;1.35;1.17;;;19.10;39.90;;;22.78;27.52;99545.22;6216773;23;20012;-81
2021/01/20 07:14:53;;;;;;;1.30;1.17;;;19.10;39.90;;;22.74;27.52;99539.34;6246636;23;20086;-83
2021/01/20 07:17:20;;;;;;;2.35;1.35;;;19.10;40.00;;;22.80;27.51;99547.75;6271793;22;20004;-80
2021/01/20 07:19:51;;;;;;;1.17;1.08;;;19.10;39.90;;;22.74;27.50;99535.84;6250346;22;20011;-85
2021/01/20 07:22:17;;;;;;;2.22;1.20;;;19.10;40.00;;;22.77;27.56;99538.22;6218630;22;20014;-81
2021/01/20 07:24:43;;;;;;;1.40;1.30;;;19.10;40.00;;;22.71;27.43;99522.78;6193782;23;20450;-82
2021/01/20 07:27:11;;;;;;;1.63;1.30;;;19.10;40.50;;;22.78;27.43;99525.75;6245005;23;20066;-84
2021/01/20 07:29:39;;;;;;;1.23;1.13;;;19.10;40.00;;;22.71;27.47;99514.78;6249904;22;20066;-78
2021/01/20 07:32:06;;;;;;;1.85;1.13;;;19.10;40.00;;;22.69;27.35;99506.94;6242005;23;20099;-83
2021/01/20 07:34:41;;;;;;;2.22;1.65;;;19.10;40.00;;;22.78;27.42;99523.06;6194721;23;20019;-81
2021/01/20 07:37:16;;;;;;;1.10;0.98;;;19.10;40.00;;;22.73;27.44;99518.97;6244932;23;20073;-81
2021/01/20 07:39:44;;;;;;;1.00;1.00;;;19.10;40.00;;;22.75;27.68;99509.06;6244874;23;20134;-81
2021/01/20 07:42:10;;;;;;;1.35;1.15;;;19.10;40.00;;;22.69;27.40;99506.94;6219503;23;20100;-79
2021/01/20 07:44:47;;;;;;;1.42;1.17;;;19.10;39.90;;;22.76;27.36;99523.22;6219970;23;20012;-80
2021/01/20 07:47:13;;;;;;;1.67;1.30;;;19.10;39.90;;;22.81;27.46;99522.81;6194907;23;20012;-80
2021/01/20 07:49:52;;;;;;;1.15;1.05;;;19.10;40.00;;;22.76;27.61;99515.22;6246425;23;20083;-83
2021/01/20 07:52:20;;;;;;;1.55;1.00;;;19.10;40.00;;;22.80;27.42;99510.44;6219862;23;20090;-81
2021/01/20 07:54:51;;;;;;;1.40;1.10;;;19.10;40.00;;;22.77;27.62;99514.25;6167978;23;20023;-80
2021/01/20 07:57:19;;;;;;;2.23;1.37;;;19.10;40.00;;;22.77;27.43;99506.25;6245221;23;20012;-82
2021/01/20 08:00:05;;;;;;;1.52;1.10;;;19.10;40.00;;;22.77;27.49;99511.59;6219385;23;20241;-81
2021/01/20 08:02:49;;;;;;;1.38;1.27;;;19.10;40.00;;;22.76;27.59;99515.22;6198594;23;20103;-79
2021/01/20 08:05:15;;;;;;;2.15;1.17;;;19.10;40.00;;;22.79;27.48;99514.06;6244874;22;20008;-79
2021/01/20 08:07:41;;;;;;;1.67;1.17;;;19.10;40.00;;;22.80;27.59;99507.78;6219447;23;20012;-79
2021/01/20 08:10:18;;;;;;;1.55;1.30;;;19.10;40.00;;;22.76;27.41;99502.72;6194899;23;20329;-79
2021/01/20 08:12:44;;;;;;;1.20;1.10;;;19.10;40.00;;;22.79;27.45;99503.41;6244631;23;20100;-79
2021/01/20 08:15:11;;;;;;;2.92;1.30;;;19.10;40.00;;;22.81;27.55;99501.47;6244509;23;20008;-79
2021/01/20 08:17:38;;;;;;;2.67;1.30;;;19.10;40.00;;;22.79;27.57;99503.41;6244322;23;20016;-80
2021/01/20 08:20:05;;;;;;;1.20;1.10;;;19.10;40.00;;;22.78;27.52;99513.25;6244426;22;20008;-78
2021/01/20 08:22:31;;;;;;;1.30;1.20;;;19.10;40.00;;;22.81;27.51;99512.97;6219281;23;20012;-79
2021/01/20 08:24:56;;;;;;;2.30;1.35;;;19.10;40.00;;;22.80;27.62;99521.94;6219177;23;20030;-82
2021/01/20 08:27:31;;;;;;;1.65;1.30;;;19.10;40.00;;;22.78;27.47;99504.41;6222515;22;20067;-82
2021/01/20 08:29:58;;;;;;;1.42;1.20;;;19.10;40.00;;;22.80;27.61;99510.44;6218427;22;20008;-81
2021/01/20 08:32:25;;;;;;;3.38;1.13;;;19.10;40.00;;;22.83;27.57;99512.84;6250658;22;20134;-78
2021/01/20 08:34:53;;;;;;;2.20;1.50;;;19.10;40.00;;;22.79;27.44;99514.94;6244584;23;20304;-79
2021/01/20 08:37:36;;;;;;;1.33;1.20;;;19.10;39.90;;;22.81;27.51;99512.97;6196558;22;20005;-81
2021/01/20 08:40:06;;;;;;;1.30;1.20;;;19.10;39.90;;;22.79;27.49;99500.75;6218625;22;20442;-81
2021/01/20 08:42:34;;;;;;;1.77;1.40;;;19.10;39.90;;;22.84;27.59;99506.53;6193990;23;20012;-81
2021/01/20 08:45:20;;;;;;;1.48;1.35;;;19.10;40.00;;;22.82;27.59;99504.00;6219376;23;20020;-81
2021/01/20 08:47:59;;;;;;;1.52;1.33;;;19.10;40.00;;;22.78;27.53;99501.75;6245828;23;20016;-83
2021/01/20 08:50:46;;;;;;;1.50;1.40;;;19.20;40.00;;;22.83;27.36;99507.50;6267142;22;20012;-80
2021/01/20 08:53:24;;;;;;;1.90;1.60;;;19.20;40.00;;;22.82;27.38;99503.16;6191052;23;20378;-80
2021/01/20 08:55:52;;;;;;;1.60;1.50;;;19.10;39.90;;;22.82;27.60;99517.34;6218913;23;20067;-80
2021/01/20 08:58:32;;;;;;;2.35;1.48;;;19.10;39.90;;;22.79;27.48;99496.28;6249141;22;20386;-80
2021/01/20 09:01:07;;;;;;;2.35;1.15;;;19.10;40.00;;;22.79;27.46;99508.75;6224738;22;20031;-80
2021/01/20 09:03:35;;;;;;;2.10;1.33;;;19.20;40.00;;;22.79;27.64;99492.75;6225153;22;20067;-81
2021/01/20 09:06:13;;;;;;;1.67;1.40;;;19.10;39.90;;;22.78;27.45;99497.25;6217994;22;20020;-80
2021/01/20 09:08:39;;;;;;;1.40;1.27;;;19.10;40.00;;;22.79;27.51;99496.28;6216742;23;20071;-81
2021/01/20 09:11:05;;;;;;;2.45;1.73;;;19.10;40.00;;;22.81;27.54;99498.81;6269574;22;20448;-80
2021/01/20 09:13:31;;;;;;;1.35;1.25;;;19.10;40.00;;;22.83;27.38;99513.66;6245917;23;20103;-81
2021/01/20 09:15:57;;;;;;;2.33;1.50;;;19.10;40.00;;;22.81;27.70;99509.47;6221544;23;20051;-81
2021/01/20 09:18:24;;;;;;;1.45;1.23;;;19.10;40.00;;;22.83;27.53;99507.50;6220747;23;20016;-77
2021/01/20 09:20:52;;;;;;;1.65;1.55;;;19.10;40.00;;;22.81;27.51;99507.63;6246092;23;20362;-80
2021/01/20 09:23:18;;;;;;;1.52;1.40;;;19.10;40.10;;;22.80;27.52;99505.94;6195892;23;20330;-81
2021/01/20 09:25:45;;;;;;;1.42;1.23;;;19.10;40.00;;;22.81;27.50;99488.16;6246239;23;20043;-80
2021/01/20 09:28:10;;;;;;;1.38;1.10;;;19.10;40.10;;;22.83;27.36;99492.34;6220838;23;20016;-83
2021/01/20 09:30:36;;;;;;;1.38;1.27;;;19.10;40.00;;;22.80;27.51;99494.44;6246286;22;20452;-80
2021/01/20 09:33:04;;;;;;;1.30;1.20;;;19.10;40.10;;;22.82;27.50;99489.81;6248433;23;20327;-79
2021/01/20 09:35:29;;;;;;;1.73;1.40;;;19.10;40.10;;;22.82;27.54;99492.47;6246423;23;20139;-81
2021/01/20 09:37:55;;;;;;;2.88;1.40;;;19.10;40.10;;;22.84;27.52;99490.53;6243425;23;20044;-82
2021/01/20 09:40:23;;;;;;;3.47;1.52;;;19.10;40.00;;;22.83;27.61;99487.00;6251297;22;20008;-79
2021/01/20 09:42:50;;;;;;;2.00;1.67;;;19.20;40.00;;;22.83;27.59;99491.50;6220750;23;20019;-82
2021/01/20 09:45:20;;;;;;;1.65;1.27;;;19.10;40.00;;;22.82;27.49;99485.34;6220128;23;20012;-77
2021/01/20 09:47:46;;;;;;;1.15;1.05;;;19.20;40.10;;;22.88;27.54;99490.09;6224093;22;20385;-78
2021/01/20 09:50:17;;;;;;;1.88;1.40;;;19.20;40.10;;;22.85;27.45;99486.88;6278315;22;20015;-79
2021/01/20 09:52:47;;;;;;;1.65;0.98;;;19.20;40.10;;;22.89;27.53;99490.97;6217652;23;20435;-81
2021/01/20 09:55:16;;;;;;;1.27;1.10;;;19.20;40.00;;;22.86;27.47;99472.59;6221455;23;20008;-81
2021/01/20 09:57:42;;;;;;;5.30;1.38;;;19.20;40.00;;;22.86;27.51;99472.59;6220582;23;20008;-85
2021/01/20 10:00:09;;;;;;;1.73;1.10;;;19.20;40.00;;;22.88;27.44;99486.59;6245970;23;20008;-79
2021/01/20 10:02:37;;;;;;;1.80;1.40;;;19.20;40.00;;;22.89;27.39;99482.97;6245813;23;20046;-78
2021/01/20 10:05:07;;;;;;;1.50;1.30;;;19.20;40.10;;;22.84;27.59;99467.38;6220934;23;20088;-81
2021/01/20 10:07:33;;;;;;;1.90;1.30;;;19.20;40.00;;;22.89;27.60;99478.47;6245755;23;20008;-81
2021/01/20 10:09:59;;;;;;;4.70;1.50;;;19.20;40.00;;;22.87;27.51;99466.25;6195478;23;20016;-83
2021/01/20 10:12:25;;;;;;;1.85;1.30;;;19.20;40.00;;;22.90;27.55;99466.84;6220411;23;20015;-79
2021/01/20 10:14:51;;;;;;;1.83;1.35;;;19.20;40.00;;;22.91;27.53;99473.00;6220501;23;20008;-81
2021/01/20 10:17:17;;;;;;;2.15;1.35;;;19.30;40.00;;;22.92;27.43;99474.66;6271116;22;20020;-83
2021/01/20 10:19:43;;;;;;;4.22;1.45;;;19.20;39.90;;;22.91;27.59;99457.84;6220237;23;20449;-80
2021/01/20 10:22:09;;;;;;;2.15;1.65;;;19.20;39.90;;;22.93;27.51;99468.38;6209037;23;20015;-80
2021/01/20 10:24:34;;;;;;;2.10;1.30;;;19.30;40.00;;;22.96;27.53;99464.59;6245313;22;20086;-81
2021/01/20 10:27:01;;;;;;;1.92;1.40;;;19.30;40.00;;;22.92;27.65;99464.88;6220182;23;20043;-82
2021/01/20 10:29:27;;;;;;;1.52;1.30;;;19.30;40.00;;;22.94;27.53;99460.22;6245276;23;20338;-82
2021/01/20 10:31:53;;;;;;;1.60;1.40;;;19.30;39.90;;;22.93;27.52;99455.03;6247433;23;20012;-84
2021/01/20 10:34:19;;;;;;;3.53;1.42;;;19.30;40.00;;;22.95;27.60;99450.41;6245376;23;20087;-80
2021/01/20 10:36:44;;;;;;;2.78;1.45;;;19.30;40.00;;;22.96;27.54;99452.09;6244965;23;20043;-80